Terminal Aerodrome Forecast
Issued by NWS Chicago, IL

Home | Current Version | Previous Version | Text Only | Print | Product List | Glossary On
Versions: 1 2 3 4 5 6 7 8 9 10 11 12 13 14 15 16 17 18 19 20 21 22 23 24 25 26 27 28 29 30 31 32
000
FTUS43 KLOT 240255 AAA
TAFRFD
TAF AMD
KRFD 240255Z 2403/2424 15006KT P6SM FEW080 BKN150
     FM241200 16010KT P6SM VCSH SCT040 BKN070
     FM241800 15012G18KT P6SM SCT040 BKN070
     FM242300 15012G18KT P6SM -SHRA VCTS OVC045CB=

USA.gov is the U.S. government's official web portal to all federal, state and local government web resources and services.